• Join FlightAware (Why Join?)
  • Login
  • US Flag 
01:16AM EDT


 

Airport Tracker/Info


-or-


 

Live Flight TrackerFlight Track Log ✈ ASQ4600 ✈ 25-Apr-2013 ✈ KRIC - KCLE

Flight Track Log - Related Links

Times and Time Zones

All times are in EDT time to prevent confusion due to time zone crossing. See the ASQ4600 flight status page for this flight to view local times or setup timezone preferences in your user account.

Time Position Orientation Groundspeed Altitude Reporting Facility
EDT Latitude Longitude Course Direction KTS MPH feet Rate Location/Type
06:43AM 37.5333 -77.3667 315° West 180 207 2,200  Level Potomac TRACON
06:44AM 37.5611 -77.4022 315° West 193 222 3,800 2,280 Climbing Washington Center
06:45AM 37.6017 -77.4686 308° West 216 249 6,500 2,280 Climbing Washington Center
06:47AM 37.6889 -77.6150 307° West 259 298 10,700 2,100 Climbing Washington Center
06:48AM 37.7417 -77.7006 308° West 289 333 12,900 1,860 Climbing Washington Center
06:49AM 37.7964 -77.7914 307° West 313 360 14,500 1,620 Climbing Washington Center
06:50AM 37.8531 -77.8853 307° West 327 376 16,200 1,500 Climbing Washington Center
06:51AM 37.9097 -77.9817 307° West 332 382 17,600 1,200 Climbing Washington Center
06:52AM 37.9683 -78.0756 308° West 343 395 18,700 1,440 Climbing Washington Center
06:53AM 38.0622 -78.1631 324° Northwest 356 410 20,500 1,680 Climbing Washington Center
06:54AM 38.1769 -78.1697 357° North 368 423 22,100 1,440 Climbing Washington Center
06:55AM 38.2936 -78.1764 357° North 394 453 23,500 1,380 Climbing Washington Center
06:56AM 38.4103 -78.1806 358° North 406 467 24,900 1,440 Climbing Washington Center
06:57AM 38.5247 -78.1872 357° North 406 467 26,400 1,020 Climbing Washington Center
06:58AM 38.6392 -78.1964 356° North 406 467 27,000 300 Climbing Washington Center
06:59AM 38.7581 -78.2006 358° North 411 473 27,000  Level Washington Center
07:00AM 38.8850 -78.2106 356° North 425 489 27,000  Level Washington Center
07:01AM 39.0097 -78.2203 357° North 442 509 27,000  Level Washington Center
07:02AM 39.1408 -78.2356 355° North 454 522 27,000  Level Washington Center
07:03AM 39.2675 -78.2483 356° North 460 529 27,000  Level Washington Center
07:05AM 39.5247 -78.2739 356° North 461 531 27,000  Level Cleveland Center
07:06AM 39.6500 -78.2858 356° North 461 531 27,000  Level Cleveland Center
07:07AM 39.7525 -78.2986 355° North 461 531 27,000  Level Cleveland Center
07:08AM 39.8783 -78.3403 346° North 451 519 27,000  Level Cleveland Center
07:09AM 39.9636 -78.4378 319° Northwest 408 470 27,000  Level Cleveland Center
07:10AM 40.0486 -78.5328 319° Northwest 408 470 27,000  Level Cleveland Center
07:11AM 40.1339 -78.6278 320° Northwest 403 464 27,000  Level Cleveland Center
07:12AM 40.2189 -78.7233 319° Northwest 403 464 27,000  Level Cleveland Center
07:13AM 40.3017 -78.8189 319° Northwest 403 464 27,000  Level Cleveland Center
07:14AM 40.3719 -78.9317 309° West 397 457 27,000  Level Cleveland Center
07:15AM 40.4342 -79.0447 306° West 397 457 27,000  Level Cleveland Center
07:16AM 40.4981 -79.1578 307° West 392 451 27,000  Level Cleveland Center
07:17AM 40.5619 -79.2739 306° West 392 451 27,000  Level Cleveland Center
07:18AM 40.6300 -79.3903 308° West 397 457 27,000  Level Cleveland Center
07:19AM 40.6936 -79.5042 306° West 397 457 27,000  Level Cleveland Center
07:20AM 40.7553 -79.6183 306° West 397 457 27,000  Level Cleveland Center
07:21AM 40.8186 -79.7325 306° West 397 457 27,000  Level Cleveland Center
07:22AM 40.8819 -79.8472 306° West 392 451 27,000 -300 Level Cleveland Center
07:23AM 40.9431 -79.9592 306° West 387 445 26,500 -1,200 Descending Cleveland Center
07:24AM 41.0083 -80.0742 307° West 387 445 24,700 -1,260 Descending Cleveland Center
07:25AM 41.0672 -80.1839 305° West 380 437 24,000 -360 Descending Cleveland Center
07:26AM 41.1278 -80.2964 306° West 375 432 24,000  Level Cleveland Center
07:27AM 41.1906 -80.4119 306° West 384 442 24,000 -1,200 Level Cleveland Center
07:28AM 41.2511 -80.5222 306° West 378 435 21,600 -2,520 Descending Cleveland Center
07:29AM 41.3136 -80.6439 304° West 373 429 19,000 -2,460 Descending Cleveland Center
07:30AM 41.3617 -80.7575 299° West 373 429 16,700 -2,400 Descending Cleveland Center
07:31AM 41.4050 -80.8711 297° West 348 400 14,300 -2,400 Descending Cleveland Center
07:32AM 41.4464 -80.9819 297° West 343 395 11,900 -2,580 Descending Cleveland Center
07:32AM 41.4692 -81.0347 300° West 331 381 10,500 -1,920 Descending Cleveland Center
07:33AM 41.4878 -81.0931 293° West 336 387 10,000 -600 Descending Cleveland Center
07:33AM 41.5083 -81.1433 299° West 317 365 9,900  Descending Cleveland Center
07:34AM 41.5122 -81.2014 275° West 320 368 10,000  Climbing Cleveland Center
07:34AM 41.5119 -81.2458 270° West 325 374 9,900  Descending Cleveland Center
07:35AM 41.5094 -81.3125 267° West 300 345 10,000 -120 Climbing Cleveland Center
07:35AM 41.5072 -81.3539 266° West 277 319 9,800 -1,140 Descending Cleveland Center
07:36AM 41.5047 -81.4067 266° West 282 325 8,900 -1,920 Descending Cleveland Center
07:36AM 41.5044 -81.4372 269° West 216 249 7,900 -2,220 Descending Cleveland Center
07:37AM 41.5042 -81.4842 270° West 234 269 6,700 -2,220 Descending Cleveland Center
07:37AM 41.5039 -81.5175 269° West 212 244 5,700 -2,100 Descending Cleveland Center
07:38AM 41.5014 -81.5675 266° West 223 257 4,600 -2,100 Descending Cleveland Center
07:38AM 41.5008 -81.6200 269° West 238 274 3,400 -1,620 Descending Cleveland Center
07:39AM 41.5006 -81.6533 269° West 228 262 3,000 -540 Descending Cleveland Center
07:39AM 41.5000 -81.6978 269° West 212 244 2,900  Descending Cleveland Center
07:40AM 41.4894 -81.7281 245° Southwest 220 253 3,000 -420 Climbing Cleveland Center
07:40AM 41.4725 -81.7608 235° Southwest 189 217 2,500 -840 Descending Cleveland Center
07:41AM 41.4597 -81.7772 224° Southwest 186 214 2,200 -780 Descending Cleveland Center
07:41AM 41.4469 -81.7964 228° Southwest 117 135 1,800 -720 Descending Cleveland Center
07:42AM 41.4278 -81.8294 232° Southwest 112 129 1,200 -600 Descending Cleveland Center
07:44AM 41.4000 -81.8500 252° West  Level FlightAware Approximate
07:51AM 41.4094 -81.8547 252° West  Level Estimated